createdAt,value
2017-07-19T00:02:07.472Z,64.70
2017-07-19T00:04:34.645Z,64.60
2017-07-19T00:07:00.826Z,64.90
2017-07-19T00:09:27.014Z,64.80
2017-07-19T00:11:53.967Z,64.90
2017-07-19T00:14:20.253Z,64.90
2017-07-19T00:16:46.458Z,64.90
2017-07-19T00:19:13.219Z,64.90
2017-07-19T00:21:39.374Z,64.90
2017-07-19T00:24:05.595Z,64.60
2017-07-19T00:26:31.802Z,64.60
2017-07-19T00:28:57.975Z,64.70
2017-07-19T00:31:24.126Z,64.70
2017-07-19T00:33:50.311Z,65.30
2017-07-19T00:36:16.489Z,65.50
2017-07-19T00:38:44.396Z,65.70
2017-07-19T00:41:10.642Z,65.70
2017-07-19T00:43:36.825Z,65.60
2017-07-19T00:46:03.794Z,66.20
2017-07-19T00:48:29.989Z,64.90
2017-07-19T00:50:56.905Z,66.10
2017-07-19T00:53:23.115Z,65.30
2017-07-19T00:55:49.311Z,64.80
2017-07-19T00:58:15.656Z,64.90
2017-07-19T01:00:41.858Z,66.00
2017-07-19T01:03:08.044Z,65.60
2017-07-19T01:05:34.239Z,66.00
2017-07-19T01:08:00.808Z,66.50
2017-07-19T01:10:26.996Z,67.00
2017-07-19T01:12:53.237Z,67.10
2017-07-19T01:15:19.493Z,66.20
2017-07-19T01:17:45.670Z,66.70
2017-07-19T01:20:12.229Z,66.30
2017-07-19T01:22:38.452Z,66.90
2017-07-19T01:25:04.617Z,66.40
2017-07-19T01:27:30.818Z,66.10
2017-07-19T01:29:57.010Z,66.60
2017-07-19T01:32:24.015Z,66.30
2017-07-19T01:34:50.190Z,66.70
2017-07-19T01:37:17.146Z,67.50
2017-07-19T01:39:44.195Z,66.80
2017-07-19T01:42:11.099Z,67.00
2017-07-19T01:44:37.274Z,66.00
2017-07-19T01:47:03.738Z,66.80
2017-07-19T01:49:44.949Z,66.60
2017-07-19T01:52:11.201Z,67.40
2017-07-19T01:54:38.147Z,67.70
2017-07-19T01:57:05.072Z,67.90
2017-07-19T01:59:32.010Z,66.80
2017-07-19T02:01:58.187Z,66.70
2017-07-19T02:04:24.429Z,67.10
2017-07-19T02:06:50.620Z,66.30
2017-07-19T02:09:17.579Z,67.10
2017-07-19T02:11:44.869Z,66.90
2017-07-19T02:14:11.059Z,67.20
2017-07-19T02:16:37.994Z,67.00
2017-07-19T02:19:04.893Z,67.40
2017-07-19T02:21:31.098Z,67.20
2017-07-19T02:23:57.309Z,67.20
2017-07-19T02:26:23.855Z,67.90
2017-07-19T02:28:50.064Z,68.30
2017-07-19T02:31:17.037Z,67.80
2017-07-19T02:33:43.217Z,67.80
2017-07-19T02:36:09.414Z,69.00
2017-07-19T02:38:35.582Z,67.00
2017-07-19T02:41:01.765Z,67.70
2017-07-19T02:43:27.961Z,67.50
2017-07-19T02:45:54.194Z,67.30
2017-07-19T02:48:20.422Z,67.90
2017-07-19T02:50:46.603Z,68.40
2017-07-19T02:53:12.800Z,68.10
2017-07-19T02:55:39.031Z,68.50
2017-07-19T02:58:05.267Z,68.00
2017-07-19T03:00:31.430Z,68.60
2017-07-19T03:02:57.627Z,68.60
2017-07-19T03:05:23.839Z,68.00
2017-07-19T03:07:50.039Z,68.80
2017-07-19T03:10:17.017Z,68.50
2017-07-19T03:12:43.226Z,68.30
2017-07-19T03:15:10.158Z,67.80
2017-07-19T03:17:37.097Z,68.10
2017-07-19T03:20:03.698Z,67.90
2017-07-19T03:22:47.804Z,67.90
2017-07-19T03:25:14.084Z,67.90
2017-07-19T03:27:40.316Z,67.90
2017-07-19T03:30:06.547Z,67.90
2017-07-19T03:32:32.719Z,67.90
2017-07-19T03:34:59.287Z,67.90
2017-07-19T03:37:25.486Z,67.90
2017-07-19T03:39:51.638Z,68.00
2017-07-19T03:42:17.887Z,68.00
2017-07-19T03:44:44.110Z,68.10
2017-07-19T03:47:10.729Z,68.10
2017-07-19T03:49:36.921Z,67.70
2017-07-19T03:52:03.871Z,68.00
2017-07-19T03:54:30.797Z,68.30
2017-07-19T03:56:57.030Z,68.30
2017-07-19T03:59:23.224Z,69.10
2017-07-19T04:01:49.414Z,69.10
2017-07-19T04:04:15.583Z,68.50
2017-07-19T04:06:41.803Z,69.30
2017-07-19T04:09:08.022Z,68.10
2017-07-19T04:11:34.213Z,68.30
2017-07-19T04:14:01.177Z,68.70
2017-07-19T04:16:27.349Z,68.10
2017-07-19T04:18:53.494Z,68.20
2017-07-19T04:21:19.697Z,67.50
2017-07-19T04:23:46.247Z,68.20
2017-07-19T04:26:12.442Z,68.00
2017-07-19T04:28:38.665Z,68.40
2017-07-19T04:31:04.888Z,68.70
2017-07-19T04:33:31.046Z,68.10
2017-07-19T04:35:57.258Z,68.50
2017-07-19T04:38:23.446Z,68.10
2017-07-19T04:40:50.491Z,69.50
2017-07-19T04:43:17.578Z,69.10
2017-07-19T04:45:43.771Z,69.50
2017-07-19T04:48:10.727Z,69.00
2017-07-19T04:50:37.648Z,69.50
2017-07-19T04:53:03.856Z,69.50
2017-07-19T04:55:30.224Z,68.80
2017-07-19T04:57:57.163Z,68.50
2017-07-19T05:00:24.117Z,68.10
2017-07-19T05:02:51.022Z,66.70
2017-07-19T05:05:17.230Z,65.70
2017-07-19T05:07:43.408Z,66.10
2017-07-19T05:10:10.355Z,65.70
2017-07-19T05:12:36.539Z,65.70
2017-07-19T05:15:02.710Z,64.90
2017-07-19T05:17:29.642Z,64.30
2017-07-19T05:19:55.802Z,64.20
2017-07-19T05:22:22.711Z,63.90
2017-07-19T05:24:48.857Z,63.80
2017-07-19T05:27:15.033Z,64.30
2017-07-19T05:29:41.190Z,64.00
2017-07-19T05:32:07.363Z,63.00
2017-07-19T05:34:33.616Z,63.40
2017-07-19T05:36:59.794Z,63.10
2017-07-19T05:39:25.978Z,62.60
2017-07-19T05:41:52.195Z,62.60
2017-07-19T05:44:18.353Z,62.20
2017-07-19T05:46:44.536Z,61.60
2017-07-19T05:49:10.757Z,60.20
2017-07-19T05:51:36.945Z,59.70
2017-07-19T05:54:03.139Z,59.80
2017-07-19T05:56:29.375Z,58.70
2017-07-19T05:58:55.573Z,58.90
2017-07-19T06:01:22.598Z,59.40
2017-07-19T06:03:48.778Z,57.60
2017-07-19T06:06:15.002Z,58.20
2017-07-19T06:08:41.216Z,57.10
2017-07-19T06:11:07.390Z,57.60
2017-07-19T06:13:33.558Z,55.70
2017-07-19T06:15:59.754Z,55.30
2017-07-19T06:18:25.903Z,55.90
2017-07-19T06:20:52.854Z,56.00
2017-07-19T06:23:19.901Z,55.20
2017-07-19T06:25:46.843Z,54.90
2017-07-19T06:28:13.775Z,55.20
2017-07-19T06:30:39.994Z,52.00
2017-07-19T06:33:06.212Z,53.30
2017-07-19T06:35:32.443Z,51.90
2017-07-19T06:37:58.668Z,52.20
2017-07-19T06:40:25.205Z,52.10
2017-07-19T06:42:51.759Z,52.20
2017-07-19T06:45:17.929Z,52.90
2017-07-19T06:47:44.684Z,50.70
2017-07-19T06:50:10.879Z,50.70
2017-07-19T06:52:37.863Z,51.30
2017-07-19T06:55:04.125Z,51.10
2017-07-19T06:57:30.341Z,50.70
2017-07-19T06:59:56.542Z,49.20
2017-07-19T07:02:22.739Z,50.10
2017-07-19T07:04:49.789Z,51.60
2017-07-19T07:07:16.705Z,50.60
2017-07-19T07:09:42.953Z,49.20
2017-07-19T07:12:09.899Z,50.80
2017-07-19T07:14:36.893Z,49.30
2017-07-19T07:17:03.151Z,47.60
2017-07-19T07:19:30.365Z,47.30
2017-07-19T07:21:56.599Z,46.70
2017-07-19T07:24:22.822Z,48.10
2017-07-19T07:26:49.061Z,46.50
2017-07-19T07:29:15.361Z,48.10
2017-07-19T07:31:41.599Z,48.70
2017-07-19T07:34:07.862Z,46.80
2017-07-19T07:36:34.127Z,45.70
2017-07-19T07:39:00.357Z,45.30
2017-07-19T07:41:27.677Z,46.00
2017-07-19T07:43:54.718Z,45.60
2017-07-19T07:46:20.982Z,45.10
2017-07-19T07:48:47.310Z,45.80
2017-07-19T07:51:13.526Z,44.10
2017-07-19T07:53:39.744Z,44.70
2017-07-19T07:56:05.976Z,42.90
2017-07-19T07:58:32.176Z,43.00
2017-07-19T08:00:58.380Z,44.60
2017-07-19T08:03:25.371Z,42.40
2017-07-19T08:05:51.555Z,44.50
2017-07-19T08:08:18.922Z,43.40
2017-07-19T08:10:45.127Z,40.10
2017-07-19T08:13:11.561Z,39.60
2017-07-19T08:15:37.729Z,39.00
2017-07-19T08:18:04.050Z,38.50
2017-07-19T08:20:30.639Z,38.50
2017-07-19T08:22:56.993Z,39.00
2017-07-19T08:25:23.977Z,40.80
2017-07-19T08:27:50.217Z,41.20
2017-07-19T08:30:16.421Z,41.60
2017-07-19T08:32:42.705Z,42.50
2017-07-19T08:35:08.904Z,42.60
2017-07-19T08:37:35.133Z,42.20
2017-07-19T08:40:01.385Z,42.60
2017-07-19T08:42:27.603Z,41.60
2017-07-19T08:44:53.845Z,42.30
2017-07-19T08:47:20.107Z,42.70
2017-07-19T08:49:47.026Z,41.90
2017-07-19T08:52:13.243Z,39.30
2017-07-19T08:54:39.456Z,40.30
2017-07-19T08:57:05.670Z,40.90
2017-07-19T08:59:31.865Z,40.10
2017-07-19T09:01:58.766Z,39.90
2017-07-19T09:04:24.947Z,39.80
2017-07-19T09:06:51.869Z,40.10
2017-07-19T09:09:18.030Z,40.20
2017-07-19T09:11:44.203Z,40.30
2017-07-19T09:14:12.149Z,39.70
2017-07-19T09:16:38.426Z,39.40
2017-07-19T09:19:04.830Z,40.20
2017-07-19T09:21:31.145Z,40.10
2017-07-19T09:23:58.318Z,39.90
2017-07-19T09:26:27.120Z,39.50
2017-07-19T09:28:55.145Z,40.30
2017-07-19T09:31:21.799Z,39.40
2017-07-19T09:33:50.403Z,39.40
2017-07-19T09:36:16.991Z,39.10
2017-07-19T09:38:44.558Z,39.00
2017-07-19T09:41:12.023Z,39.70
2017-07-19T09:43:38.202Z,39.40
2017-07-19T09:46:04.438Z,39.90
2017-07-19T09:48:30.652Z,38.30
2017-07-19T09:50:56.810Z,38.90
2017-07-19T09:53:24.770Z,40.00
2017-07-19T09:55:51.903Z,41.20
2017-07-19T09:58:18.599Z,38.90
2017-07-19T10:00:47.542Z,39.00
2017-07-19T10:03:13.844Z,38.30
2017-07-19T10:05:43.416Z,38.40
2017-07-19T10:08:10.895Z,37.30
2017-07-19T10:10:37.356Z,38.20
2017-07-19T10:13:05.776Z,38.30
2017-07-19T10:15:32.024Z,38.10
2017-07-19T10:17:58.738Z,38.70
2017-07-19T10:20:26.414Z,37.70
2017-07-19T10:22:53.335Z,38.80
2017-07-19T10:25:20.275Z,36.40
2017-07-19T10:27:46.446Z,35.00
2017-07-19T10:30:12.678Z,35.30
2017-07-19T10:32:38.887Z,35.30
2017-07-19T10:35:06.009Z,36.30
2017-07-19T10:37:32.185Z,35.80
2017-07-19T10:39:58.396Z,36.10
2017-07-19T10:42:25.315Z,36.80
2017-07-19T10:44:51.491Z,36.50
2017-07-19T10:47:17.664Z,34.00
2017-07-19T10:49:47.551Z,35.10
2017-07-19T10:52:16.037Z,34.00
2017-07-19T10:54:42.234Z,34.00
2017-07-19T10:57:08.503Z,33.80
2017-07-19T10:59:35.085Z,33.50
2017-07-19T11:02:02.257Z,35.90
2017-07-19T11:04:29.745Z,34.60
2017-07-19T11:06:55.944Z,35.10
2017-07-19T11:09:22.151Z,33.40
2017-07-19T11:11:49.052Z,34.10
2017-07-19T11:14:15.278Z,34.00
2017-07-19T11:16:41.457Z,34.20
2017-07-19T11:19:08.416Z,34.50
2017-07-19T11:21:34.630Z,34.30
2017-07-19T11:24:01.573Z,33.30
2017-07-19T11:26:28.527Z,33.00
2017-07-19T11:28:54.746Z,33.00
2017-07-19T11:31:21.728Z,36.00
2017-07-19T11:33:47.910Z,35.10
2017-07-19T11:36:14.128Z,31.80
2017-07-19T11:38:41.081Z,33.50
2017-07-19T11:41:07.267Z,33.50
2017-07-19T11:43:33.487Z,34.80
2017-07-19T11:45:59.664Z,34.20
2017-07-19T11:48:26.454Z,34.00
2017-07-19T11:50:52.724Z,35.50
2017-07-19T11:53:18.895Z,36.30
2017-07-19T11:55:45.084Z,35.10
2017-07-19T11:58:11.349Z,34.60
2017-07-19T12:00:38.336Z,35.20
2017-07-19T12:03:04.546Z,35.20
2017-07-19T12:05:30.821Z,35.10
2017-07-19T12:07:57.328Z,34.00
2017-07-19T12:10:23.567Z,35.20
2017-07-19T12:12:51.614Z,35.40
2017-07-19T12:15:17.940Z,34.20
2017-07-19T12:17:44.118Z,35.00
2017-07-19T12:20:10.290Z,35.10
2017-07-19T12:22:36.499Z,34.70
2017-07-19T12:25:02.853Z,35.60
2017-07-19T12:27:29.025Z,35.40
2017-07-19T12:29:55.414Z,35.50
2017-07-19T12:32:21.996Z,33.60
2017-07-19T12:34:48.331Z,34.70
2017-07-19T12:37:14.759Z,33.80
2017-07-19T12:39:40.973Z,33.90
2017-07-19T12:42:07.159Z,34.30
2017-07-19T12:44:33.358Z,33.30
2017-07-19T12:46:59.557Z,33.90
2017-07-19T12:49:25.704Z,34.70
2017-07-19T12:51:51.898Z,35.90
2017-07-19T12:54:18.081Z,35.20
2017-07-19T12:56:45.091Z,34.10
2017-07-19T12:59:11.366Z,33.60
2017-07-19T13:01:38.324Z,34.20
2017-07-19T13:04:04.604Z,34.00
2017-07-19T13:06:30.802Z,36.00
2017-07-19T13:08:57.016Z,34.30
2017-07-19T13:11:23.621Z,34.90
2017-07-19T13:13:49.858Z,36.50
2017-07-19T13:16:16.877Z,34.70
2017-07-19T13:18:43.955Z,32.80
2017-07-19T13:21:11.054Z,33.60
2017-07-19T13:23:37.279Z,32.60
2017-07-19T13:26:03.487Z,33.60
2017-07-19T13:28:29.734Z,33.40
2017-07-19T13:30:56.078Z,32.60
2017-07-19T13:33:22.345Z,34.70
2017-07-19T13:35:49.371Z,33.50
2017-07-19T13:38:15.627Z,33.30
2017-07-19T13:40:42.617Z,34.50
2017-07-19T13:43:09.165Z,35.90
2017-07-19T13:45:35.389Z,34.70
2017-07-19T13:48:01.731Z,34.90
2017-07-19T13:50:27.965Z,34.20
2017-07-19T13:52:54.234Z,33.80
2017-07-19T13:55:21.193Z,34.80
2017-07-19T13:57:48.123Z,35.10
2017-07-19T14:00:14.367Z,34.50
2017-07-19T14:02:41.319Z,34.60
2017-07-19T14:05:10.108Z,35.30
2017-07-19T14:07:36.326Z,34.90
2017-07-19T14:10:03.234Z,37.10
2017-07-19T14:12:29.403Z,36.00
2017-07-19T14:14:55.643Z,37.10
2017-07-19T14:17:21.890Z,34.50
2017-07-19T14:19:48.106Z,36.20
2017-07-19T14:22:14.318Z,35.80
2017-07-19T14:24:41.275Z,35.50
2017-07-19T14:27:07.529Z,35.30
2017-07-19T14:29:33.712Z,36.10
2017-07-19T14:32:00.739Z,35.10
2017-07-19T14:34:27.007Z,35.10
2017-07-19T14:36:53.230Z,34.00
2017-07-19T14:39:20.207Z,36.30
2017-07-19T14:41:46.506Z,36.30
2017-07-19T14:44:12.794Z,37.10
2017-07-19T14:46:39.026Z,35.40
2017-07-19T14:49:05.247Z,35.40
2017-07-19T14:51:32.233Z,36.40
2017-07-19T14:53:58.474Z,36.20
2017-07-19T14:56:24.657Z,35.50
2017-07-19T14:58:50.875Z,35.60
2017-07-19T15:01:17.139Z,35.20
2017-07-19T15:03:43.334Z,37.00
2017-07-19T15:06:09.575Z,37.20
2017-07-19T15:08:35.794Z,38.10
2017-07-19T15:11:01.990Z,37.70
2017-07-19T15:13:29.488Z,38.50
2017-07-19T15:15:55.862Z,37.30
2017-07-19T15:18:22.866Z,37.30
2017-07-19T15:20:49.512Z,37.70
2017-07-19T15:23:15.706Z,38.20
2017-07-19T15:25:41.878Z,38.10
2017-07-19T15:28:08.055Z,39.00
2017-07-19T15:30:34.253Z,38.90
2017-07-19T15:33:01.189Z,40.00
2017-07-19T15:35:27.411Z,40.00
2017-07-19T15:37:53.602Z,40.70
2017-07-19T15:40:19.848Z,39.50
2017-07-19T15:42:46.056Z,40.30
2017-07-19T15:45:12.285Z,39.70
2017-07-19T15:47:38.497Z,42.00
2017-07-19T15:50:04.761Z,39.80
2017-07-19T15:52:30.955Z,40.40
2017-07-19T15:54:57.161Z,41.70
2017-07-19T15:57:24.118Z,41.00
2017-07-19T15:59:50.485Z,40.80
2017-07-19T16:02:17.439Z,40.60
2017-07-19T16:04:43.635Z,41.10
2017-07-19T16:07:09.798Z,41.40
2017-07-19T16:09:36.078Z,40.90
2017-07-19T16:12:03.026Z,43.10
2017-07-19T16:14:30.032Z,43.80
2017-07-19T16:16:56.237Z,44.60
2017-07-19T16:19:22.447Z,46.10
2017-07-19T16:21:48.626Z,47.10
2017-07-19T16:24:14.831Z,48.00
2017-07-19T16:26:41.071Z,48.50
2017-07-19T16:29:07.221Z,49.20
2017-07-19T16:31:34.134Z,49.60
2017-07-19T16:34:01.439Z,50.20
2017-07-19T16:36:28.431Z,51.40
2017-07-19T16:38:54.666Z,51.10
2017-07-19T16:41:21.927Z,51.70
2017-07-19T16:43:48.665Z,52.50
2017-07-19T16:46:14.928Z,52.10
2017-07-19T16:48:41.827Z,54.00
2017-07-19T16:51:08.054Z,54.00
2017-07-19T16:53:34.274Z,53.60
2017-07-19T16:56:00.567Z,54.10
2017-07-19T16:58:26.804Z,53.60
2017-07-19T17:00:53.056Z,53.80
2017-07-19T17:03:19.285Z,53.50
2017-07-19T17:05:45.521Z,53.40
2017-07-19T17:08:11.766Z,53.50
2017-07-19T17:10:37.972Z,53.00
2017-07-19T17:13:04.930Z,53.20
2017-07-19T17:15:31.591Z,53.50
2017-07-19T17:17:57.884Z,53.10
2017-07-19T17:20:24.063Z,53.60
2017-07-19T17:22:51.014Z,53.80
2017-07-19T17:25:17.279Z,53.40
2017-07-19T17:27:43.522Z,53.20
2017-07-19T17:30:09.698Z,53.40
2017-07-19T17:32:36.663Z,54.80
2017-07-19T17:35:03.608Z,53.60
2017-07-19T17:37:30.139Z,53.40
2017-07-19T17:39:56.741Z,53.80
2017-07-19T17:42:22.924Z,53.90
2017-07-19T17:44:51.443Z,54.30
2017-07-19T17:47:17.965Z,54.00
2017-07-19T17:49:44.129Z,54.60
2017-07-19T17:52:10.418Z,54.30
2017-07-19T17:54:36.629Z,53.90
2017-07-19T17:57:02.829Z,54.00
2017-07-19T17:59:29.071Z,54.30
2017-07-19T18:01:56.019Z,55.10
2017-07-19T18:04:23.246Z,55.30
2017-07-19T18:06:49.637Z,55.50
2017-07-19T18:09:15.931Z,55.10
2017-07-19T18:11:57.849Z,55.80
2017-07-19T18:14:24.063Z,55.80
2017-07-19T18:16:50.340Z,55.30
2017-07-19T18:19:16.611Z,56.00
2017-07-19T18:21:43.556Z,55.90
2017-07-19T18:24:10.580Z,56.40
2017-07-19T18:26:36.853Z,55.80
2017-07-19T18:29:03.092Z,55.80
2017-07-19T18:31:29.416Z,56.10
2017-07-19T18:33:55.597Z,56.30
2017-07-19T18:36:21.852Z,56.50
2017-07-19T18:38:48.894Z,57.00
2017-07-19T18:41:15.723Z,56.40
2017-07-19T18:43:42.517Z,56.40
2017-07-19T18:46:09.613Z,57.20
2017-07-19T18:48:35.819Z,57.20
2017-07-19T18:51:02.048Z,57.30
2017-07-19T18:53:28.276Z,57.60
2017-07-19T18:55:54.522Z,57.30
2017-07-19T18:58:20.824Z,57.60
2017-07-19T19:00:47.402Z,61.70
2017-07-19T19:03:13.598Z,81.20
2017-07-19T19:05:39.853Z,68.00
2017-07-19T19:08:06.059Z,68.70
2017-07-19T19:10:32.278Z,60.30
2017-07-19T19:12:58.495Z,64.70
2017-07-19T19:15:24.738Z,58.90
2017-07-19T19:17:51.141Z,58.10
2017-07-19T19:20:18.079Z,59.50
2017-07-19T19:22:44.682Z,59.20
2017-07-19T19:25:10.882Z,58.80
2017-07-19T19:27:37.081Z,59.60
2017-07-19T19:30:04.038Z,59.30
2017-07-19T19:32:30.311Z,59.20
2017-07-19T19:34:56.516Z,58.90
2017-07-19T19:37:24.157Z,59.50
2017-07-19T19:39:51.105Z,59.10
2017-07-19T19:42:17.397Z,58.70
2017-07-19T19:44:43.623Z,58.60
2017-07-19T19:47:09.826Z,58.30
2017-07-19T19:49:36.920Z,58.70
2017-07-19T19:52:04.612Z,58.80
2017-07-19T19:54:30.806Z,58.80
2017-07-19T19:57:00.595Z,58.80
2017-07-19T19:59:27.497Z,58.80
2017-07-19T20:01:55.714Z,58.80
2017-07-19T20:04:21.947Z,59.00
2017-07-19T20:06:49.313Z,58.80
2017-07-19T20:09:15.596Z,58.80
2017-07-19T20:11:41.922Z,59.60
2017-07-19T20:14:08.112Z,59.40
2017-07-19T20:16:35.701Z,59.10
2017-07-19T20:19:01.903Z,59.50
2017-07-19T20:21:29.028Z,60.10
2017-07-19T20:23:55.329Z,59.30
2017-07-19T20:26:21.884Z,59.40
2017-07-19T20:28:48.068Z,59.80
2017-07-19T20:31:14.424Z,59.90
2017-07-19T20:33:41.725Z,60.00
2017-07-19T20:36:07.909Z,60.00
2017-07-19T20:38:34.821Z,59.90
2017-07-19T20:41:02.220Z,60.00
2017-07-19T20:43:28.442Z,60.70
2017-07-19T20:45:54.849Z,60.50
2017-07-19T20:48:21.355Z,60.80
2017-07-19T20:50:48.399Z,61.20
2017-07-19T20:53:15.654Z,61.10
2017-07-19T20:55:44.395Z,60.80
2017-07-19T20:58:10.732Z,60.90
2017-07-19T21:00:37.119Z,61.70
2017-07-19T21:03:04.622Z,61.60
2017-07-19T21:05:30.827Z,61.30
2017-07-19T21:07:57.390Z,62.50
2017-07-19T21:10:24.763Z,61.80
2017-07-19T21:12:51.272Z,63.10
2017-07-19T21:15:17.901Z,61.50
2017-07-19T21:17:47.803Z,62.10
2017-07-19T21:20:15.018Z,62.60
2017-07-19T21:22:46.297Z,63.40
2017-07-19T21:25:14.776Z,63.20
2017-07-19T21:30:13.718Z,64.00
2017-07-19T21:32:40.012Z,62.40
2017-07-19T21:35:07.612Z,62.90
2017-07-19T21:37:34.289Z,62.30
2017-07-19T21:40:00.594Z,62.30
2017-07-19T21:42:26.915Z,62.30
2017-07-19T21:44:53.440Z,62.30
2017-07-19T21:47:20.116Z,63.20
2017-07-19T21:49:48.653Z,62.60
2017-07-19T21:52:14.853Z,64.40
2017-07-19T21:54:41.203Z,64.60
2017-07-19T21:57:07.986Z,64.00
2017-07-19T21:59:34.194Z,63.80
2017-07-19T22:02:00.474Z,63.70
2017-07-19T22:04:28.325Z,63.70
2017-07-19T22:06:55.305Z,64.60
2017-07-19T22:09:22.727Z,63.70
2017-07-19T22:11:48.964Z,64.10
2017-07-19T22:14:16.322Z,64.50
2017-07-19T22:16:42.702Z,63.70
2017-07-19T22:19:08.903Z,64.60
2017-07-19T22:21:39.307Z,64.70
2017-07-19T22:24:05.483Z,64.80
2017-07-19T22:26:32.133Z,64.30
2017-07-19T22:28:58.836Z,64.20
2017-07-19T22:31:25.323Z,64.60
2017-07-19T22:33:52.235Z,64.40
2017-07-19T22:36:18.516Z,64.20
2017-07-19T22:38:44.738Z,64.50
2017-07-19T22:41:11.064Z,64.40
2017-07-19T22:43:39.170Z,65.00
2017-07-19T22:46:05.350Z,64.10
2017-07-19T22:48:31.699Z,64.70
2017-07-19T22:50:57.930Z,64.60
2017-07-19T22:53:24.243Z,64.20
2017-07-19T22:55:50.467Z,64.10
2017-07-19T22:58:18.780Z,64.40
2017-07-19T23:00:45.152Z,64.60
2017-07-19T23:03:13.494Z,65.30
2017-07-19T23:05:40.052Z,64.60
2017-07-19T23:08:07.521Z,64.60
2017-07-19T23:10:36.795Z,65.10
2017-07-19T23:13:03.822Z,64.90
2017-07-19T23:15:31.507Z,64.30
2017-07-19T23:17:58.027Z,64.60
2017-07-19T23:20:24.299Z,64.60
2017-07-19T23:22:50.526Z,64.70
2017-07-19T23:25:18.243Z,64.40
2017-07-19T23:27:44.511Z,64.30
2017-07-19T23:30:13.324Z,64.50
2017-07-19T23:32:40.187Z,64.80
2017-07-19T23:35:06.375Z,64.70
2017-07-19T23:37:33.317Z,65.30
2017-07-19T23:40:00.669Z,64.80
2017-07-19T23:42:27.260Z,64.90
2017-07-19T23:44:53.453Z,65.30
2017-07-19T23:49:47.856Z,65.80
2017-07-19T23:52:14.048Z,65.30
2017-07-19T23:54:40.281Z,65.50
2017-07-19T23:57:06.542Z,65.10
2017-07-19T23:59:35.986Z,65.50
